createdAt,value
2022-10-12T00:02:14.882Z,16.30
2022-10-12T00:07:17.301Z,20.48
2022-10-12T00:12:19.548Z,17.27
2022-10-12T00:17:21.862Z,16.42
2022-10-12T00:22:24.203Z,15.70
2022-10-12T00:27:26.579Z,14.32
2022-10-12T00:32:28.861Z,15.63
2022-10-12T00:37:31.234Z,19.17
2022-10-12T00:42:33.576Z,13.90
2022-10-12T00:47:38.888Z,10.45
2022-10-12T00:52:47.142Z,15.98
2022-10-12T00:57:50.838Z,14.35
2022-10-12T01:02:54.314Z,15.02
2022-10-12T01:07:56.621Z,18.25
2022-10-12T01:12:59.637Z,16.67
2022-10-12T01:18:31.488Z,13.82
2022-10-12T01:24:11.093Z,14.27
2022-10-12T01:29:37.432Z,14.80
2022-10-12T01:35:02.271Z,14.10
2022-10-12T01:40:09.798Z,13.07
2022-10-12T01:45:14.811Z,13.63
2022-10-12T01:50:18.862Z,10.50
2022-10-12T01:55:32.468Z,10.63
2022-10-12T02:00:42.309Z,13.98
2022-10-12T02:06:23.112Z,17.73
2022-10-12T02:11:27.110Z,13.18
2022-10-12T02:16:33.427Z,18.38
2022-10-12T02:21:35.856Z,14.52
2022-10-12T02:26:40.824Z,17.08
2022-10-12T02:32:07.477Z,12.32
2022-10-12T02:37:21.705Z,15.30
2022-10-12T02:42:32.091Z,14.27
2022-10-12T02:47:37.756Z,13.30
2022-10-12T02:52:40.430Z,21.88
2022-10-12T02:57:42.819Z,17.63
2022-10-12T03:02:45.179Z,23.90
2022-10-12T03:07:47.465Z,21.05
2022-10-12T03:12:50.435Z,22.23
2022-10-12T03:17:52.946Z,19.00
2022-10-12T03:22:55.300Z,19.92
2022-10-12T03:27:57.632Z,21.70
2022-10-12T03:32:59.964Z,22.27
2022-10-12T03:38:02.344Z,44.13
2022-10-12T03:43:05.118Z,47.60
2022-10-12T03:48:08.037Z,26.50
2022-10-12T03:53:10.580Z,26.98
2022-10-12T03:58:13.551Z,24.30
2022-10-12T04:03:15.790Z,25.98
2022-10-12T04:08:18.094Z,24.73
2022-10-12T04:13:20.850Z,23.27
2022-10-12T04:18:23.077Z,23.52
2022-10-12T04:23:25.370Z,23.73
2022-10-12T04:28:27.696Z,23.45
2022-10-12T04:33:29.964Z,21.45
2022-10-12T04:38:32.308Z,24.02
2022-10-12T04:43:34.670Z,20.05
2022-10-12T04:48:37.013Z,21.38
2022-10-12T04:53:39.561Z,23.63
2022-10-12T04:58:41.935Z,24.65
2022-10-12T05:03:44.238Z,21.85
2022-10-12T05:08:46.554Z,18.67
2022-10-12T05:13:48.813Z,21.38
2022-10-12T05:18:51.150Z,36.70
2022-10-12T05:23:53.492Z,26.67
2022-10-12T05:28:55.856Z,23.90
2022-10-12T05:33:58.231Z,19.65
2022-10-12T05:39:00.587Z,25.25
2022-10-12T05:44:02.902Z,22.95
2022-10-12T05:49:05.605Z,22.27
2022-10-12T05:54:07.857Z,22.10
2022-10-12T05:59:11.514Z,23.10
2022-10-12T06:04:13.908Z,22.15
2022-10-12T06:09:16.338Z,21.48
2022-10-12T06:14:18.635Z,20.25
2022-10-12T06:19:20.976Z,20.20
2022-10-12T06:24:23.294Z,22.15
2022-10-12T06:29:25.602Z,22.88
2022-10-12T06:34:27.933Z,27.67
2022-10-12T06:39:30.296Z,19.10
2022-10-12T06:44:32.943Z,22.25
2022-10-12T06:49:35.292Z,18.42
2022-10-12T06:54:37.658Z,19.05
2022-10-12T06:59:40.242Z,16.40
2022-10-12T07:04:42.550Z,16.95
2022-10-12T07:09:44.879Z,18.38
2022-10-12T07:14:47.139Z,19.33
2022-10-12T07:19:49.446Z,16.92
2022-10-12T07:24:51.745Z,17.10
2022-10-12T07:29:54.014Z,17.02
2022-10-12T07:34:56.292Z,20.17
2022-10-12T07:39:58.626Z,19.35
2022-10-12T07:45:00.931Z,19.90
2022-10-12T07:50:03.198Z,16.98
2022-10-12T07:55:05.868Z,15.73
2022-10-12T08:00:08.667Z,13.10
2022-10-12T08:05:13.866Z,16.67
2022-10-12T08:10:16.744Z,18.77
2022-10-12T08:15:19.230Z,15.18
2022-10-12T08:20:21.622Z,17.67
2022-10-12T08:25:23.955Z,16.48
2022-10-12T08:30:27.177Z,15.45
2022-10-12T08:35:29.569Z,13.32
2022-10-12T08:40:35.407Z,16.25
2022-10-12T08:45:52.507Z,13.52
2022-10-12T08:56:04.846Z,13.00
2022-10-12T09:01:38.608Z,13.00
2022-10-12T09:06:44.929Z,13.65
2022-10-12T09:11:47.170Z,9.60
2022-10-12T09:16:50.565Z,13.93
2022-10-12T09:21:52.901Z,13.07
2022-10-12T09:27:00.632Z,7.40
2022-10-12T09:32:21.705Z,12.05
2022-10-12T09:37:27.063Z,6.38
2022-10-12T09:42:29.341Z,7.88
2022-10-12T09:47:33.321Z,9.20
2022-10-12T09:52:45.040Z,10.00
2022-10-12T09:57:54.818Z,8.98
2022-10-12T10:02:57.853Z,10.30
2022-10-12T10:08:21.234Z,13.80
2022-10-12T10:13:26.194Z,7.68
2022-10-12T10:18:59.651Z,8.38
2022-10-12T10:24:06.997Z,7.53
2022-10-12T10:29:22.773Z,10.65
2022-10-12T10:34:25.340Z,12.35
2022-10-12T10:39:31.591Z,9.95
2022-10-12T10:44:34.507Z,9.07
2022-10-12T10:49:51.302Z,10.48
2022-10-12T10:55:11.776Z,6.72
2022-10-12T11:00:37.871Z,7.25
2022-10-12T11:05:46.287Z,7.32
2022-10-12T11:10:57.186Z,7.30
2022-10-12T11:16:15.015Z,10.75
2022-10-12T11:21:55.601Z,4.25
2022-10-12T11:27:04.125Z,6.72
2022-10-12T11:32:15.203Z,8.18
2022-10-12T11:37:22.848Z,6.47
2022-10-12T11:47:44.146Z,4.85
2022-10-12T11:52:48.362Z,3.20
2022-10-12T11:57:51.647Z,6.35
2022-10-12T12:03:03.343Z,3.67
2022-10-12T12:08:05.723Z,6.15
2022-10-12T12:13:14.901Z,5.70
2022-10-12T12:18:21.608Z,4.03
2022-10-12T12:23:38.529Z,2.72
2022-10-12T12:28:47.125Z,4.23
2022-10-12T12:33:52.143Z,5.00
2022-10-12T12:38:54.891Z,4.25
2022-10-12T12:43:57.290Z,4.68
2022-10-12T12:49:00.347Z,5.63
2022-10-12T12:54:19.160Z,7.00
2022-10-12T12:59:48.776Z,4.07
2022-10-12T13:05:21.139Z,3.67
2022-10-12T13:10:39.818Z,9.40
2022-10-12T13:15:42.070Z,5.93
2022-10-12T13:20:47.580Z,8.70
2022-10-12T13:25:57.109Z,8.13
2022-10-12T13:31:22.261Z,5.15
2022-10-12T13:36:27.320Z,6.20
2022-10-12T13:41:30.577Z,6.22
2022-10-12T13:46:46.292Z,7.18
2022-10-12T13:51:52.172Z,4.95
2022-10-12T13:57:01.215Z,10.00
2022-10-12T14:02:04.168Z,7.07
2022-10-12T14:07:08.493Z,6.13
2022-10-12T14:12:11.971Z,7.57
2022-10-12T14:17:19.139Z,5.53
2022-10-12T14:22:25.349Z,8.93
2022-10-12T14:27:29.480Z,5.05
2022-10-12T14:32:41.243Z,7.00
2022-10-12T14:37:43.529Z,6.13
2022-10-12T14:43:01.151Z,6.97
2022-10-12T14:48:05.156Z,11.20
2022-10-12T14:53:11.710Z,7.85
2022-10-12T14:58:16.570Z,14.90
2022-10-12T15:03:20.306Z,24.58
2022-10-12T15:08:22.810Z,35.95
2022-10-12T15:13:25.299Z,20.33
2022-10-12T15:18:27.993Z,31.60
2022-10-12T15:23:30.358Z,28.67
2022-10-12T15:28:33.217Z,30.48
2022-10-12T15:33:35.558Z,28.23
2022-10-12T15:38:37.848Z,25.65
2022-10-12T15:43:42.062Z,23.48
2022-10-12T15:48:44.774Z,24.23
2022-10-12T15:53:47.173Z,18.88
2022-10-12T15:58:49.810Z,21.90
2022-10-12T16:03:52.165Z,19.73
2022-10-12T16:08:54.463Z,14.82
2022-10-12T16:13:57.118Z,19.42
2022-10-12T16:18:59.606Z,12.98
2022-10-12T16:24:01.862Z,14.82
2022-10-12T16:29:04.205Z,65.25
2022-10-12T16:34:06.458Z,152.85
2022-10-12T16:39:08.958Z,39.00
2022-10-12T16:44:11.233Z,29.33
2022-10-12T16:49:13.590Z,16.55
2022-10-12T16:54:16.294Z,16.25
2022-10-12T16:59:18.714Z,15.93
2022-10-12T17:04:21.249Z,9.25
2022-10-12T17:09:23.638Z,10.43
2022-10-12T17:14:26.528Z,11.88
2022-10-12T17:19:32.219Z,11.32
2022-10-12T17:24:36.170Z,16.85
2022-10-12T17:29:42.171Z,29.17
2022-10-12T17:34:45.122Z,27.85
2022-10-12T17:39:50.517Z,29.42
2022-10-12T17:44:52.828Z,28.30
2022-10-12T17:49:55.211Z,26.00
2022-10-12T17:54:57.517Z,22.92
2022-10-12T18:00:00.028Z,20.52
2022-10-12T18:05:02.431Z,24.40
2022-10-12T18:10:05.925Z,20.38
2022-10-12T18:15:08.667Z,18.08
2022-10-12T18:20:11.788Z,21.80
2022-10-12T18:25:15.662Z,25.85
2022-10-12T18:30:18.001Z,29.02
2022-10-12T18:35:20.554Z,24.23
2022-10-12T18:40:23.028Z,20.63
2022-10-12T18:45:25.346Z,24.05
2022-10-12T18:50:27.738Z,25.20
2022-10-12T18:55:30.059Z,52.40
2022-10-12T19:00:32.777Z,58.45
2022-10-12T19:05:35.265Z,67.97
2022-10-12T19:10:41.003Z,78.78
2022-10-12T19:15:43.360Z,80.57
2022-10-12T19:20:45.631Z,55.60
2022-10-12T19:25:48.293Z,52.67
2022-10-12T19:30:50.653Z,31.45
2022-10-12T19:35:53.189Z,38.78
2022-10-12T19:40:55.449Z,50.92
2022-10-12T19:46:02.845Z,53.47
2022-10-12T19:51:08.365Z,57.33
2022-10-12T19:56:14.119Z,81.68
2022-10-12T20:01:30.799Z,88.28
2022-10-12T20:06:33.261Z,61.20
2022-10-12T20:11:35.868Z,23.05
2022-10-12T20:16:38.414Z,20.77
2022-10-12T20:21:40.707Z,16.90
2022-10-12T20:26:43.652Z,18.15
2022-10-12T20:31:45.925Z,17.00
2022-10-12T20:36:48.265Z,19.27
2022-10-12T20:41:50.577Z,19.25
2022-10-12T20:46:52.951Z,22.38
2022-10-12T20:51:55.295Z,26.80
2022-10-12T20:56:57.729Z,21.73
2022-10-12T21:02:00.019Z,20.40
2022-10-12T21:07:02.273Z,20.95
2022-10-12T21:12:04.681Z,20.88
2022-10-12T21:17:06.978Z,23.73
2022-10-12T21:22:09.508Z,18.85
2022-10-12T21:27:11.757Z,17.92
2022-10-12T21:32:14.027Z,20.65
2022-10-12T21:37:16.387Z,19.85
2022-10-12T21:42:19.019Z,22.23
2022-10-12T21:47:21.575Z,19.38
2022-10-12T21:52:23.934Z,23.83
2022-10-12T21:57:26.236Z,27.48
2022-10-12T22:02:28.488Z,24.80
2022-10-12T22:07:30.815Z,25.15
2022-10-12T22:12:33.501Z,19.52
2022-10-12T22:17:36.073Z,20.77
2022-10-12T22:22:38.399Z,23.30
2022-10-12T22:27:40.722Z,34.45
2022-10-12T22:32:43.015Z,42.28
2022-10-12T22:37:45.572Z,34.40
2022-10-12T22:42:47.810Z,34.03
2022-10-12T22:47:50.038Z,34.50
2022-10-12T22:52:52.323Z,33.03
2022-10-12T22:57:54.591Z,36.20
2022-10-12T23:02:56.834Z,37.20
2022-10-12T23:07:59.548Z,35.00
2022-10-12T23:13:01.863Z,36.35
2022-10-12T23:18:04.435Z,32.50
2022-10-12T23:23:06.972Z,32.75
2022-10-12T23:28:09.237Z,34.42
2022-10-12T23:33:11.482Z,38.25
2022-10-12T23:38:14.137Z,36.40
2022-10-12T23:43:16.398Z,36.45
2022-10-12T23:48:18.783Z,37.30
2022-10-12T23:53:22.225Z,33.83
2022-10-12T23:58:24.581Z,38.60
